PLYK1: Cottonwood River, Plymouth, KS

                                SHEF ID:       PLYK1     COTTONWOOD R NR PLYMOUTH, KS
STATION TYPE:
Regulating: Stage = 28.00, Flow = 11886

PRECIP STAGE STAGE(2) RIV-FLOW BAT-LOAD
in ft ft cfs volt
Ccp-Rev Ccp-Rev Ccp-Rev Ccp-Rev Ccp-Rev
(America/Chicago)
11/26 00:00 0.00 7.56 ---- 1234 12.60
11/26 01:00 0.00 7.53 ---- 1225 12.59
11/26 02:00 0.00 7.49 ---- 1212 12.57
11/26 03:00 0.00 7.45 ---- 1199 12.54
11/26 04:00 0.00 7.42 ---- 1190 ----
11/26 05:00 0.00 7.39 ---- 1181 12.51
11/26 06:00 0.00 7.35 ---- 1168 12.50
11/26 07:00 0.00 7.33 ---- 1162 12.48
11/26 08:00 0.00 7.29 ---- 1150 12.47
11/26 09:00 0.00 7.26 ---- 1141 13.17
11/26 10:00 0.00 7.23 ---- 1132 13.36
11/26 11:00 0.00 7.20 ---- 1123 13.24
11/26 12:00 0.00 7.18 ---- 1117 13.24
11/26 13:00 0.00 7.15 ---- 1108 13.24
11/26 14:00 0.00 7.12 ---- 1099 13.19
11/26 15:00 0.00 7.10 ---- 1093 13.19
11/26 16:00 0.00 7.07 ---- 1084 13.05
11/26 17:00 0.00 7.05 ---- 1078 13.04
11/26 18:00 0.00 7.02 ---- 1069 12.76
11/26 19:00 0.00 7.00 ---- 1063 12.70
11/26 20:00 0.00 6.98 ---- 1057 12.66
11/26 21:00 0.00 6.96 ---- 1051 12.63
11/26 22:00 0.00 6.94 ---- 1045 12.60
11/26 23:00 0.00 6.91 ---- 1036 12.58
Data processed at Thu 27Nov2025 05:06 GMT

NOTICE: If you are parsing this page

Please convert to using our Data API. Starting January 1st, 2026 we will be migrating to: https://water.usace.army.mil with modern pages rendered in JavaScript. You will no longer be able to scrape this page! CWMSDataAPI (CDA)

Timeseries IDs (TSIDs)

TSIDs used from left to right in the data table
PLYM.Precip-Inc.Total.1Hour.1Hour.Ccp-Rev
PLYM.Stage.Inst.1Hour.0.Ccp-Rev
PLYM.Stage-Alt.Inst.1Hour.0.Ccp-Rev
PLYM.Flow.Inst.1Hour.0.Ccp-Rev
PLYM.Volt-Battery Load.Inst.1Hour.0.Ccp-Rev

                            

All information presented herein is the property of the government of the United States of America and may be revised or deleted at any time without prior notice. Dissemination of this information without the expressed written consent of the Public Affairs Office, Tulsa District U.S. Army Corps of Engineers is strictly prohibited. These data are gathered electronically and, as presented, have NOT undergone any form of quality control. These data are NOT guaranteed to be valid or correct.